Main page
METAR-TAF:

METAR-TAF

Airports :

Fairford, England

RAF Fairford

latitude: 51-41N, longitude: 001-47W, elevation: 87 m

Current weather observation

The report was made 30 minutes ago, at 15:16 UTC
Wind 15 kt from the South/Southwest with gusts up to 22 kt
Temperature 13°C
Humidity 82%
Pressure 1011 hPa
Visibility: 11.3 km
Overcast at a height of 2000 ft

METAR: EGVA 231516Z 21015G22KT 7SM OVC020 13/10 A2984 RMK RAE1459DZB1459E00 CIG 019 RWY09 SLP109 RVRNO $

Time: 15:46 (15:46 UTC)


TAF: missing

Weather observations and forecasts of more than 4000 airports (METAR and TAF reports).

The available stations are represented by yellow and red dots on the map.

Hover mouse over dot to see the name of the station.

Then click to see weather observations and forecasts.

To change the map : click on the green buttons with a black cross to zoom in, on the green button with a dash to zoom out, or on the green arrows for adjacent maps.


METAR-TAF: